Nearby METAR Reports

 

ENCN - Kristiansand/Kje, Norway
Distance from station: N 17km
Oppdatert: 23/04/2024 07:50
Klart
Klart
 Vind fra N
Vind: N 7 km/h
Temperatur: 6°C
Wind Chill: 4°C
Duggpunkt: -3°C
Fuktighet: 53%
Barometer: 1014 hPa
Oversikt: Klart
Visibility: greater than 10 km
2024/04/23 05:50 ENCN 230550Z 35004KT 300V040 CAVOK 06/M03 Q1014
EKSN - Sindal Airport, Denmark
Distance from station: ØSØ 145km
Oppdatert: 30/12/2021 14:50
NOT Current
Mist, Hovedsaklig skyet
Mist, Hovedsaklig skyet
 Vind fra SV
Vind: SV 26 km/h
Temperatur: 7°C
Wind Chill: 3°C
Duggpunkt: 7°C
Fuktighet: 100%
Barometer: 999 hPa
Oversikt: Mist
Clouds: Hovedsaklig skyet
Visibility: 5 km
Cloud details: Delvis skyet 183 m
Hovedsaklig skyet 244 m
2021/12/30 13:50 EKSN 301350Z 23014KT 4500 BR SCT006 BKN008 07/07 Q0999
 
EKYT - Alborg, Denmark
Distance from station: SØ 153km
Oppdatert: 23/04/2024 07:20
Hovedsaklig skyet
Hovedsaklig skyet
 Vind fra VSV
Vind: VSV 26 km/h
Temperatur: 6°C
Wind Chill: 2°C
Duggpunkt: 3°C
Fuktighet: 81%
Barometer: 1015 hPa
Clouds: Hovedsaklig skyet
Visibility: 10 km
Cloud details: Delvis skyet 701 m
Hovedsaklig skyet 3658 m
2024/04/23 05:20 EKYT 230520Z AUTO 25014KT 9999 SCT023/// BKN120/// 06/03 Q1015
ENSN - Skien/Geiterygge, Norway
Distance from station: NØ 153km
Oppdatert: 09/11/2015 09:50
NOT Current
Klart
Klart
 Vind fra SSV
Vind: SSV 19 km/h, Vindkast: 41 km/h
Temperatur: 7°C
Wind Chill: 4°C
Duggpunkt: 3°C
Fuktighet: 76%
Barometer: 1000 hPa
Oversikt: Klart
Visibility: greater than 10 km
2015/11/09 08:50 ENSN 090850Z 20010G22KT 150V240 CAVOK 07/03 Q1000
 
ENZV - Stavanger/Sola(A, Norway
Distance from station: NV 166km
Oppdatert: 23/04/2024 07:50
Hovedsaklig skyet
Hovedsaklig skyet
 Vind fra N
Vind: N 26 km/h
Temperatur: 5°C
Wind Chill: 1°C
Duggpunkt: 3°C
Fuktighet: 87%
Barometer: 1017 hPa
Clouds: Hovedsaklig skyet
Visibility: 10 km
Cloud details: Few Clouds 305 m
Hovedsaklig skyet 671 m
Hovedsaklig skyet 1737 m
2024/04/23 05:50 ENZV 230550Z 35014KT 9999 FEW010 BKN022 BKN057 05/03 Q1017 NOSIG
ENNO - Notodden, Norway
Distance from station: NNØ 182km
Oppdatert: 23/04/2024 07:20
Hovedsaklig skyet
Hovedsaklig skyet
 Vind fra varies
Vind: varies 2 km/h
Temperatur: 2°C
Duggpunkt: -2°C
Fuktighet: 75%
Barometer: 1015 hPa
Clouds: Hovedsaklig skyet
Visibility: 10 km
Cloud details: Few Clouds 1585 m
Hovedsaklig skyet 1981 m
2024/04/23 05:20 ENNO 230520Z VRB01KT 9999 FEW052 BKN065 02/M02 Q1015
 
ENTO - Torp (civ/Nor-Af, Norway
Distance from station: NØ 183km
Oppdatert: 23/04/2024 07:50
Hovedsaklig skyet
Hovedsaklig skyet
 Vind fra N
Vind: N 7 km/h
Temperatur: 2°C
Wind Chill: 0°C
Duggpunkt: 1°C
Fuktighet: 93%
Barometer: 1014 hPa
Clouds: Hovedsaklig skyet
Visibility: 10 km
Cloud details: Few Clouds 914 m
Hovedsaklig skyet 2438 m
2024/04/23 05:50 ENTO 230550Z 01004KT 330V050 9999 FEW030 BKN080 02/01 Q1014
EKKA - Karup (dan-Afb), Denmark
Distance from station: SSØ 209km
Oppdatert: 23/04/2024 07:50
Hovedsaklig skyet
Hovedsaklig skyet
 Vind fra VSV
Vind: VSV 13 km/h
Clouds: Hovedsaklig skyet
Visibility: 10 km
Cloud details: Few Clouds 945 m
Few Clouds 1036 m
Hovedsaklig skyet 3353 m
2024/04/23 05:50 EKKA 230550Z AUTO 24007KT 9999 FEW031/// FEW034/// BKN110//
 
ENHD - Haugesund/Karmoy, Norway
Distance from station: NV 216km
Oppdatert: 23/04/2024 07:50
Delvis skyet
Delvis skyet
 Vind fra NNV
Vind: NNV 44 km/h
Temperatur: 5°C
Wind Chill: -1°C
Duggpunkt: 0°C
Fuktighet: 70%
Barometer: 1017 hPa
Clouds: Delvis skyet
Visibility: 10 km
Cloud details: Delvis skyet 701 m
2024/04/23 05:50 ENHD 230550Z 34024KT 9999 SCT023 05/00 Q1017
ENRY - Rygge (nor-Afb), Norway
Distance from station: NØ 216km
Oppdatert: 23/04/2024 07:50
Delvis skyet
Delvis skyet
 Vind fra NNØ
Vind: NNØ 13 km/h
Temperatur: 2°C
Wind Chill: -1°C
Duggpunkt: 1°C
Fuktighet: 93%
Barometer: 1014 hPa
Clouds: Delvis skyet
Visibility: 10 km
Cloud details: Few Clouds 2316 m
Delvis skyet 2804 m
2024/04/23 05:50 ENRY 230550Z AUTO 02007KT 9999 FEW076/// SCT092/// 02/01 Q1014
 
ESGP - Goteborg/Save (a, Sweden
Distance from station: Ø 230km
Oppdatert: 23/04/2024 07:20
Hovedsaklig skyet
Hovedsaklig skyet
 Vind fra S
Vind: S 9 km/h
Temperatur: 4°C
Wind Chill: 2°C
Duggpunkt: 2°C
Fuktighet: 87%
Barometer: 1015 hPa
Clouds: Hovedsaklig skyet
Visibility: 10 km
Cloud details: Few Clouds 488 m
Hovedsaklig skyet 701 m
2024/04/23 05:20 ESGP 230520Z AUTO 19005KT 9999 FEW016/// BKN023/// 04/02 Q1015
EKVJ - Stauning Airport, Denmark
Distance from station: S 233km
Oppdatert: 23/04/2024 07:20
Few Clouds
Few Clouds
 Vind fra V
Vind: V 17 km/h
Temperatur: 6°C
Wind Chill: 3°C
Duggpunkt: 0°C
Fuktighet: 66%
Barometer: 1018 hPa
Clouds: Few Clouds
Visibility: 10 km
Cloud details: Few Clouds 853 m
2024/04/23 05:20 EKVJ 230520Z AUTO 26009KT 230V290 9999 FEW028/// 06/00 Q1018 TEST
 
ENSO - Stord/Soerstokke, Norway
Distance from station: NV 246km
Oppdatert: 23/04/2024 07:20
Delvis skyet
Delvis skyet
 Vind fra NNV
Vind: NNV 28 km/h
Temperatur: 4°C
Wind Chill: -1°C
Duggpunkt: 1°C
Fuktighet: 81%
Barometer: 1018 hPa
Clouds: Delvis skyet
Visibility: 10 km
Cloud details: Few Clouds 610 m
Delvis skyet 1585 m
2024/04/23 05:20 ENSO 230520Z 34015KT 9999 FEW020 SCT052 04/01 Q1018
EKAH - Tirstrup (civ/Mi, Denmark
Distance from station: SØ 252km
Oppdatert: 23/04/2024 07:20
Overskyet
Overskyet
 Vind fra SV
Vind: SV 7 km/h
Temperatur: 3°C
Wind Chill: 1°C
Duggpunkt: 0°C
Fuktighet: 81%
Barometer: 1017 hPa
Clouds: Overskyet
Visibility: 10 km
Cloud details: Overskyet 1890 m
2024/04/23 05:20 EKAH 230520Z AUTO 23004KT 200V270 9999 OVC062/// 03/00 Q1017
 
ESGT - Trollhattan (pvt, Sweden
Distance from station: Ø 255km
Oppdatert: 23/04/2024 07:20
Klart
Klart
 Vind fra S
Vind: S 6 km/h
Temperatur: -1°C
Duggpunkt: -3°C
Fuktighet: 86%
Barometer: 1015 hPa
Oversikt: Klart
Visibility: greater than 10 km
2024/04/23 05:20 ESGT 230520Z 18003KT CAVOK M01/M03 Q1015
ESGG - Goteborg/Landvet, Sweden
Distance from station: Ø 257km
Oppdatert: 23/04/2024 07:20
Delvis skyet
Delvis skyet
 Vind fra S
Vind: S 11 km/h
Temperatur: 0°C
Wind Chill: -4°C
Duggpunkt: -2°C
Fuktighet: 87%
Barometer: 1015 hPa
Clouds: Delvis skyet
Visibility: 10 km
Cloud details: Few Clouds 488 m
Delvis skyet 4267 m
2024/04/23 05:20 ESGG 230520Z 17006KT 9999 FEW016 SCT140 M00/M02 Q1015
 
EKBI - Billund Airport, Denmark
Distance from station: SSØ 269km
Oppdatert: 23/04/2024 07:20
Few Clouds
Few Clouds
 Vind fra VSV
Vind: VSV 6 km/h
Temperatur: 1°C
Duggpunkt: 0°C
Fuktighet: 93%
Barometer: 1019 hPa
Clouds: Few Clouds
Visibility: 10 km
Cloud details: Few Clouds 1737 m
2024/04/23 05:20 EKBI 230520Z AUTO 24003KT 9999 FEW057/// 01/00 Q1019
EKHN - Horns Rev B Heli, Denmark
Distance from station: S 274km
Oppdatert: 09/08/2016 14:20
NOT Current
Few Clouds
Few Clouds
 Vind fra VNV
Vind: VNV 50 km/h, Vindkast: 72 km/h
Temperatur: 14°C
Duggpunkt: 10°C
Fuktighet: 77%
Barometer: 1018 hPa
Clouds: Few Clouds
Visibility: 10 km
Cloud details: Few Clouds 1158 m
Few Clouds 2438 m
2016/08/09 12:20 EKHN 091220Z AUTO 29027G39KT 270V340 9999NDV FEW038/// FEW080/// 14/10 Q1018
 
ESIB - Satenas (swe-Afb, Sweden
Distance from station: Ø 277km
Oppdatert: 23/04/2024 07:20
Few Clouds
Few Clouds
 Vind fra SSØ
Vind: SSØ 11 km/h
Temperatur: 0°C
Wind Chill: -4°C
Duggpunkt: -2°C
Fuktighet: 87%
Barometer: 1015 hPa
Clouds: Few Clouds
Visibility: 10 km
Cloud details: Few Clouds 549 m
2024/04/23 05:20 ESIB 230520Z 15006KT 9999 FEW018 M00/M02 Q1015
EKHR - Horns Rev B Heli, Denmark
Distance from station: S 282km
Oppdatert: 04/10/2016 06:20
NOT Current
Klart
Klart
 Vind fra Ø
Vind: Ø 4 km/h
Temperatur: 11°C
Duggpunkt: -49°C
Fuktighet: 0%
Barometer: 1038 hPa
Clouds: Klart
Visibility: 10 km
2016/10/04 04:20 EKHR 040420Z AUTO 08002KT 9999NDV NCD 11/M49 Q1038